Quick Links (Output Below):   Max & Min Temps   /   Climate Reports   /   Zone Forecasts
River Forecasts   /   Forestry Forecasts   /   Aviation Forecasts   /   Radars   /   Features

Terminal Aerodrome Forecast (Texarkana)

Pick a Site:
Arkadelphia | El Dorado | Fayetteville | Fort Smith | Harrison | Highfill | Hot Springs | Jonesboro
Little Rock | Monticello | Mountain Home | Pine Bluff | Texarkana
 Forecast 

KTXK 131720Z 1318/1418 10012KT P6SM SKC
     FM140000 11007KT P6SM SCT250
      TEMPO 1402/1406 BKN045
     FM140600 13008KT P6SM BKN045 BKN250
     FM141500 15010KT P6SM OVC025=


 Latest METARs (Observations) 
How to Decode METARs
17Z KTXK 131653Z 09008KT 10SM CLR 08/M04 A3050 RMK AO2 SLP327
         T00781039 $
         
16Z KTXK 131553Z 08010G16KT 10SM CLR 07/M04 A3050 RMK AO2 SLP328
         T00671044 $
         
15Z KTXK 131453Z 09006G16KT CLR 06/M04 A3049 RMK AO2 SLP325 T00561039
         51019 $
         
14Z KTXK 131353Z 07007KT 10SM CLR 04/M03 A3049 RMK AO2 SLP323
         T00441033 $
         
13Z KTXK 131253Z 08005KT CLR 04/M03 A3047 RMK AO2 SLP318 T00441028
         $
         
12Z KTXK 131153Z 08005KT CLR 05/M02 A3044 RMK AO2 SLP306 T00501022
         10100 20039 53011 $
         
11Z KTXK 131053Z AUTO 06006KT CLR 06/M02 A3042 RMK AO2 SLP299
         T00611022 $
         
10Z KTXK 130953Z AUTO 08004KT CLR 07/M02 A3040 RMK AO2 SLP292
         T00671017 $
         
09Z KTXK 130853Z AUTO 07005KT CLR 08/M01 A3040 RMK AO2 SLP294
         T00781011 53011 $
         
08Z KTXK 130753Z AUTO 07005KT CLR 08/M02 A3039 RMK AO2 SLP290
         T00831017 $
         
***** Today's Observations (Above) *****


Back to Main Page
http://www.srh.noaa.gov/lzk/qfcst.php

USA.gov is the U.S. government's official web portal to all federal, state and local government web resources and services.